Airfield :
LOGIN :

Register | Disclaimer

   EN    FR    IT 

 










Legend :    VFR   Marginal VFR   IFR   Intensive IFR   Very Intensive IFR
Visi :
Ceiling :
>= 8 km
>= 3000ft
5 to 8 km
1000 to 3000 ft
1500m to 5 km
500 to 1000 ft
800 to 1500m
200 to 500 ft
< 800m
< 200 ft
Symbols :   Thunderstorms  Fog  Heavy snow  Heavy precipitations  Wind > 20 kt
SIGMETs :     Misc.  Thunderstorms  Icing  Turbulence  Mountain Waves  Volcanic Ashes







- Airport Elevation : 74 ft
- IATA code : NDZ


ETMN - Cuxhaven Nordholz Sea AB

CURRENT METAR :
  • 160920Z 21005KT 9999 FEW025 SCT170 BKN220 19/12 Q1019 BLU+BLU+

EXPIRED METARs :
  • 160820Z 21006KT 9999 SCT160 BKN200 17/12 Q1018 BLU+BLU+
  • 160720Z 23008KT 9999 SCT140 BKN200 16/13 Q1018 BLU+BLU+
  • 160620Z 23007KT 9999 BKN200 15/13 Q1018 BLU+BLU+

TAF COR TAF ETMN
Valid from the 16 at 08:00 until the 16 at 17:00 UTC


160728Z 1608/1617 24010KT 9999 NSW FEW050 BKN220
BECMG 1612/1614 33012KT 9999 NSW SCT050 SCT220
PROB30 1614/1617 35012G22KT 7000 SHRA BKN030TCU
No reported NOTAMs for that airfield.



MET'MAP, your aeronautical weather chart ! - Copyright ORBIFLY December 2007 - Disclaimer

ORBIFLY MET'MAP TEAM :

Programming & Development : Alexandra Zaïnal
Concept & Development : Baudouin d'Aumeries
Co-Development & Prog : Marc-Olivier Méhu
Technical & hardware support : Manuel Goepfert

Contact : metmap@orbifly.com




SOURCES & CREDITS :

   NOAA